sensor_id;sensor_type;location;lat;lon;timestamp;P1;durP1;ratioP1;P2;durP2;ratioP2
7523;SDS011;3803;51.666;7.630;2023-06-10T00:00:07;14.70;;;12.70;;
7523;SDS011;3803;51.666;7.630;2023-06-10T00:00:34;15.00;;;13.07;;
7523;SDS011;3803;51.666;7.630;2023-06-10T00:00:56;16.42;;;13.25;;
7523;SDS011;3803;51.666;7.630;2023-06-10T00:01:16;16.38;;;13.10;;
7523;SDS011;3803;51.666;7.630;2023-06-10T00:01:38;16.10;;;12.88;;
7523;SDS011;3803;51.666;7.630;2023-06-10T00:01:58;14.93;;;12.85;;
7523;SDS011;3803;51.666;7.630;2023-06-10T00:02:20;15.50;;;12.70;;
7523;SDS011;3803;51.666;7.630;2023-06-10T00:02:41;15.60;;;12.90;;
7523;SDS011;3803;51.666;7.630;2023-06-10T00:03:03;15.88;;;12.70;;
7523;SDS011;3803;51.666;7.630;2023-06-10T00:03:23;15.98;;;13.23;;
7523;SDS011;3803;51.666;7.630;2023-06-10T00:03:44;15.45;;;12.82;;
7523;SDS011;3803;51.666;7.630;2023-06-10T00:04:05;15.00;;;12.67;;
7523;SDS011;3803;51.666;7.630;2023-06-10T00:04:26;14.38;;;12.25;;
7523;SDS011;3803;51.666;7.630;2023-06-10T00:04:47;15.23;;;12.70;;
7523;SDS011;3803;51.666;7.630;2023-06-10T00:05:08;16.70;;;12.90;;
7523;SDS011;3803;51.666;7.630;2023-06-10T00:05:30;16.88;;;13.30;;
7523;SDS011;3803;51.666;7.630;2023-06-10T00:05:51;17.23;;;13.27;;
7523;SDS011;3803;51.666;7.630;2023-06-10T00:06:12;16.20;;;13.10;;
7523;SDS011;3803;51.666;7.630;2023-06-10T00:06:33;16.80;;;13.57;;
7523;SDS011;3803;51.666;7.630;2023-06-10T00:06:56;15.93;;;13.48;;
7523;SDS011;3803;51.666;7.630;2023-06-10T00:07:17;16.00;;;13.55;;
7523;SDS011;3803;51.666;7.630;2023-06-10T00:07:38;15.35;;;13.55;;
7523;SDS011;3803;51.666;7.630;2023-06-10T00:07:59;15.43;;;13.80;;
7523;SDS011;3803;51.666;7.630;2023-06-10T00:08:20;16.00;;;14.30;;
7523;SDS011;3803;51.666;7.630;2023-06-10T00:08:41;15.45;;;13.80;;
7523;SDS011;3803;51.666;7.630;2023-06-10T00:09:03;15.13;;;13.52;;
7523;SDS011;3803;51.666;7.630;2023-06-10T00:09:35;15.77;;;13.70;;
7523;SDS011;3803;51.666;7.630;2023-06-10T00:09:57;17.45;;;14.32;;
7523;SDS011;3803;51.666;7.630;2023-06-10T00:10:18;17.20;;;13.73;;
7523;SDS011;3803;51.666;7.630;2023-06-10T00:10:39;16.17;;;13.50;;
7523;SDS011;3803;51.666;7.630;2023-06-10T00:11:00;16.70;;;13.90;;
7523;SDS011;3803;51.666;7.630;2023-06-10T00:11:21;16.13;;;13.80;;
7523;SDS011;3803;51.666;7.630;2023-06-10T00:11:42;18.38;;;13.77;;
7523;SDS011;3803;51.666;7.630;2023-06-10T00:12:06;19.48;;;13.60;;
7523;SDS011;3803;51.666;7.630;2023-06-10T00:12:27;20.25;;;13.98;;
7523;SDS011;3803;51.666;7.630;2023-06-10T00:12:49;18.48;;;14.18;;
7523;SDS011;3803;51.666;7.630;2023-06-10T00:13:12;16.10;;;13.73;;
7523;SDS011;3803;51.666;7.630;2023-06-10T00:13:32;16.37;;;13.70;;
7523;SDS011;3803;51.666;7.630;2023-06-10T00:13:53;15.80;;;13.30;;
7523;SDS011;3803;51.666;7.630;2023-06-10T00:14:13;15.20;;;13.00;;
7523;SDS011;3803;51.666;7.630;2023-06-10T00:14:36;14.15;;;12.65;;
7523;SDS011;3803;51.666;7.630;2023-06-10T00:14:58;14.60;;;12.93;;
7523;SDS011;3803;51.666;7.630;2023-06-10T00:15:19;15.80;;;13.93;;
7523;SDS011;3803;51.666;7.630;2023-06-10T00:15:40;16.35;;;14.10;;
7523;SDS011;3803;51.666;7.630;2023-06-10T00:16:00;16.55;;;14.00;;
7523;SDS011;3803;51.666;7.630;2023-06-10T00:16:21;16.73;;;13.47;;
7523;SDS011;3803;51.666;7.630;2023-06-10T00:16:42;16.83;;;14.07;;
7523;SDS011;3803;51.666;7.630;2023-06-10T00:17:05;16.67;;;14.20;;
7523;SDS011;3803;51.666;7.630;2023-06-10T00:17:30;16.63;;;14.13;;
7523;SDS011;3803;51.666;7.630;2023-06-10T00:17:51;16.27;;;13.68;;
7523;SDS011;3803;51.666;7.630;2023-06-10T00:18:15;15.32;;;13.13;;
7523;SDS011;3803;51.666;7.630;2023-06-10T00:18:36;14.45;;;12.85;;
7523;SDS011;3803;51.666;7.630;2023-06-10T00:18:59;14.43;;;12.68;;
7523;SDS011;3803;51.666;7.630;2023-06-10T00:19:20;15.00;;;12.98;;
7523;SDS011;3803;51.666;7.630;2023-06-10T00:19:45;16.83;;;13.57;;
7523;SDS011;3803;51.666;7.630;2023-06-10T00:20:07;18.02;;;13.73;;
7523;SDS011;3803;51.666;7.630;2023-06-10T00:20:31;16.58;;;14.02;;
7523;SDS011;3803;51.666;7.630;2023-06-10T00:20:53;17.63;;;14.18;;
7523;SDS011;3803;51.666;7.630;2023-06-10T00:21:15;16.58;;;13.60;;
7523;SDS011;3803;51.666;7.630;2023-06-10T00:21:35;15.80;;;13.45;;
7523;SDS011;3803;51.666;7.630;2023-06-10T00:22:00;16.48;;;13.80;;
7523;SDS011;3803;51.666;7.630;2023-06-10T00:22:21;17.80;;;14.05;;
7523;SDS011;3803;51.666;7.630;2023-06-10T00:22:42;18.23;;;13.80;;
7523;SDS011;3803;51.666;7.630;2023-06-10T00:23:05;17.30;;;13.45;;
7523;SDS011;3803;51.666;7.630;2023-06-10T00:23:28;15.77;;;13.35;;
7523;SDS011;3803;51.666;7.630;2023-06-10T00:23:51;15.90;;;13.52;;
7523;SDS011;3803;51.666;7.630;2023-06-10T00:24:12;16.17;;;13.50;;
7523;SDS011;3803;51.666;7.630;2023-06-10T00:24:32;14.95;;;13.35;;
7523;SDS011;3803;51.666;7.630;2023-06-10T00:24:53;14.30;;;12.80;;
7523;SDS011;3803;51.666;7.630;2023-06-10T00:25:13;14.48;;;12.98;;
7523;SDS011;3803;51.666;7.630;2023-06-10T00:25:34;15.33;;;12.63;;
7523;SDS011;3803;51.666;7.630;2023-06-10T00:25:55;16.58;;;13.50;;
7523;SDS011;3803;51.666;7.630;2023-06-10T00:26:16;16.55;;;13.63;;
7523;SDS011;3803;51.666;7.630;2023-06-10T00:26:38;16.02;;;14.07;;
7523;SDS011;3803;51.666;7.630;2023-06-10T00:26:59;17.23;;;13.50;;
7523;SDS011;3803;51.666;7.630;2023-06-10T00:27:20;17.10;;;13.13;;
7523;SDS011;3803;51.666;7.630;2023-06-10T00:27:41;16.42;;;12.98;;
7523;SDS011;3803;51.666;7.630;2023-06-10T00:28:02;15.75;;;12.98;;
7523;SDS011;3803;51.666;7.630;2023-06-10T00:28:23;16.73;;;13.60;;
7523;SDS011;3803;51.666;7.630;2023-06-10T00:28:44;17.53;;;14.47;;
7523;SDS011;3803;51.666;7.630;2023-06-10T00:29:05;16.85;;;15.05;;
7523;SDS011;3803;51.666;7.630;2023-06-10T00:29:26;16.50;;;14.80;;
7523;SDS011;3803;51.666;7.630;2023-06-10T00:29:47;16.45;;;14.73;;
7523;SDS011;3803;51.666;7.630;2023-06-10T00:30:08;16.27;;;14.20;;
7523;SDS011;3803;51.666;7.630;2023-06-10T00:30:29;17.58;;;14.27;;
7523;SDS011;3803;51.666;7.630;2023-06-10T00:30:50;18.90;;;14.35;;
7523;SDS011;3803;51.666;7.630;2023-06-10T00:31:11;17.65;;;14.27;;
7523;SDS011;3803;51.666;7.630;2023-06-10T00:31:36;17.38;;;13.60;;
7523;SDS011;3803;51.666;7.630;2023-06-10T00:32:00;15.80;;;12.90;;
7523;SDS011;3803;51.666;7.630;2023-06-10T00:32:21;16.38;;;13.05;;
7523;SDS011;3803;51.666;7.630;2023-06-10T00:32:42;15.18;;;12.68;;
7523;SDS011;3803;51.666;7.630;2023-06-10T00:33:03;14.80;;;12.70;;
7523;SDS011;3803;51.666;7.630;2023-06-10T00:33:24;14.63;;;12.80;;
7523;SDS011;3803;51.666;7.630;2023-06-10T00:33:45;15.02;;;13.20;;
7523;SDS011;3803;51.666;7.630;2023-06-10T00:34:08;14.80;;;13.20;;
7523;SDS011;3803;51.666;7.630;2023-06-10T00:34:29;15.30;;;13.00;;
7523;SDS011;3803;51.666;7.630;2023-06-10T00:34:49;15.77;;;13.20;;
7523;SDS011;3803;51.666;7.630;2023-06-10T00:35:10;16.58;;;13.52;;
7523;SDS011;3803;51.666;7.630;2023-06-10T00:35:31;16.10;;;13.88;;
7523;SDS011;3803;51.666;7.630;2023-06-10T00:35:54;16.75;;;13.95;;
7523;SDS011;3803;51.666;7.630;2023-06-10T00:36:15;17.70;;;13.98;;
7523;SDS011;3803;51.666;7.630;2023-06-10T00:36:36;17.20;;;13.20;;
7523;SDS011;3803;51.666;7.630;2023-06-10T00:36:57;15.27;;;12.80;;
7523;SDS011;3803;51.666;7.630;2023-06-10T00:37:18;14.10;;;12.50;;
7523;SDS011;3803;51.666;7.630;2023-06-10T00:37:39;15.05;;;13.00;;
7523;SDS011;3803;51.666;7.630;2023-06-10T00:37:59;16.30;;;13.17;;
7523;SDS011;3803;51.666;7.630;2023-06-10T00:38:20;16.13;;;13.27;;
7523;SDS011;3803;51.666;7.630;2023-06-10T00:38:41;16.02;;;13.70;;
7523;SDS011;3803;51.666;7.630;2023-06-10T00:39:03;15.63;;;13.75;;
7523;SDS011;3803;51.666;7.630;2023-06-10T00:39:24;15.30;;;13.27;;
7523;SDS011;3803;51.666;7.630;2023-06-10T00:39:45;15.20;;;12.97;;
7523;SDS011;3803;51.666;7.630;2023-06-10T00:40:06;15.00;;;13.02;;
7523;SDS011;3803;51.666;7.630;2023-06-10T00:40:29;14.43;;;12.55;;
7523;SDS011;3803;51.666;7.630;2023-06-10T00:40:52;14.00;;;12.38;;
7523;SDS011;3803;51.666;7.630;2023-06-10T00:41:12;14.15;;;12.63;;
7523;SDS011;3803;51.666;7.630;2023-06-10T00:41:34;14.73;;;13.07;;
7523;SDS011;3803;51.666;7.630;2023-06-10T00:41:56;14.93;;;13.20;;
7523;SDS011;3803;51.666;7.630;2023-06-10T00:42:17;16.00;;;12.90;;
7523;SDS011;3803;51.666;7.630;2023-06-10T00:42:38;15.55;;;12.82;;
7523;SDS011;3803;51.666;7.630;2023-06-10T00:42:59;15.40;;;12.80;;
7523;SDS011;3803;51.666;7.630;2023-06-10T00:43:20;14.07;;;12.57;;
7523;SDS011;3803;51.666;7.630;2023-06-10T00:43:41;14.60;;;12.57;;
7523;SDS011;3803;51.666;7.630;2023-06-10T00:44:02;15.18;;;13.00;;
7523;SDS011;3803;51.666;7.630;2023-06-10T00:44:23;15.93;;;13.40;;
7523;SDS011;3803;51.666;7.630;2023-06-10T00:44:44;15.27;;;13.20;;
7523;SDS011;3803;51.666;7.630;2023-06-10T00:45:05;15.30;;;12.82;;
7523;SDS011;3803;51.666;7.630;2023-06-10T00:45:26;15.93;;;13.10;;
7523;SDS011;3803;51.666;7.630;2023-06-10T00:45:47;15.40;;;12.80;;
7523;SDS011;3803;51.666;7.630;2023-06-10T00:46:08;15.38;;;13.07;;
7523;SDS011;3803;51.666;7.630;2023-06-10T00:46:29;16.35;;;13.40;;
7523;SDS011;3803;51.666;7.630;2023-06-10T00:46:52;17.05;;;13.90;;
7523;SDS011;3803;51.666;7.630;2023-06-10T00:47:15;18.25;;;14.20;;
7523;SDS011;3803;51.666;7.630;2023-06-10T00:47:37;17.75;;;14.02;;
7523;SDS011;3803;51.666;7.630;2023-06-10T00:47:59;18.27;;;13.88;;
7523;SDS011;3803;51.666;7.630;2023-06-10T00:48:21;16.40;;;13.60;;
7523;SDS011;3803;51.666;7.630;2023-06-10T00:48:42;16.45;;;13.82;;
7523;SDS011;3803;51.666;7.630;2023-06-10T00:49:05;17.92;;;14.13;;
7523;SDS011;3803;51.666;7.630;2023-06-10T00:49:26;18.17;;;13.85;;
7523;SDS011;3803;51.666;7.630;2023-06-10T00:49:47;17.35;;;13.10;;
7523;SDS011;3803;51.666;7.630;2023-06-10T00:50:10;16.55;;;13.05;;
7523;SDS011;3803;51.666;7.630;2023-06-10T00:50:32;16.80;;;13.18;;
7523;SDS011;3803;51.666;7.630;2023-06-10T00:50:55;18.10;;;13.70;;
7523;SDS011;3803;51.666;7.630;2023-06-10T00:51:20;16.17;;;14.10;;
7523;SDS011;3803;51.666;7.630;2023-06-10T00:51:42;17.60;;;14.30;;
7523;SDS011;3803;51.666;7.630;2023-06-10T00:52:03;17.20;;;13.95;;
7523;SDS011;3803;51.666;7.630;2023-06-10T00:52:27;17.30;;;13.95;;
7523;SDS011;3803;51.666;7.630;2023-06-10T00:52:49;16.35;;;13.70;;
7523;SDS011;3803;51.666;7.630;2023-06-10T00:53:11;14.73;;;13.13;;
7523;SDS011;3803;51.666;7.630;2023-06-10T00:53:36;16.02;;;14.32;;
7523;SDS011;3803;51.666;7.630;2023-06-10T00:54:01;18.67;;;14.50;;
7523;SDS011;3803;51.666;7.630;2023-06-10T00:54:23;18.42;;;13.90;;
7523;SDS011;3803;51.666;7.630;2023-06-10T00:54:44;15.00;;;13.05;;
7523;SDS011;3803;51.666;7.630;2023-06-10T00:55:05;15.57;;;13.60;;
7523;SDS011;3803;51.666;7.630;2023-06-10T00:55:28;15.20;;;13.60;;
7523;SDS011;3803;51.666;7.630;2023-06-10T00:55:48;15.37;;;13.77;;
7523;SDS011;3803;51.666;7.630;2023-06-10T00:56:10;16.10;;;13.57;;
7523;SDS011;3803;51.666;7.630;2023-06-10T00:56:31;17.10;;;14.02;;
7523;SDS011;3803;51.666;7.630;2023-06-10T00:56:55;18.27;;;14.20;;
7523;SDS011;3803;51.666;7.630;2023-06-10T00:57:17;17.20;;;14.10;;
7523;SDS011;3803;51.666;7.630;2023-06-10T00:57:37;16.75;;;13.88;;
7523;SDS011;3803;51.666;7.630;2023-06-10T00:57:58;15.90;;;13.57;;
7523;SDS011;3803;51.666;7.630;2023-06-10T00:58:20;16.05;;;13.55;;
7523;SDS011;3803;51.666;7.630;2023-06-10T00:58:43;16.90;;;14.30;;
7523;SDS011;3803;51.666;7.630;2023-06-10T00:59:04;16.23;;;14.00;;
7523;SDS011;3803;51.666;7.630;2023-06-10T00:59:25;15.80;;;13.45;;
7523;SDS011;3803;51.666;7.630;2023-06-10T00:59:47;16.20;;;13.20;;
7523;SDS011;3803;51.666;7.630;2023-06-10T01:00:10;16.23;;;13.65;;
7523;SDS011;3803;51.666;7.630;2023-06-10T01:00:32;16.17;;;13.57;;
7523;SDS011;3803;51.666;7.630;2023-06-10T01:00:56;15.80;;;13.52;;
7523;SDS011;3803;51.666;7.630;2023-06-10T01:01:20;17.58;;;14.38;;
7523;SDS011;3803;51.666;7.630;2023-06-10T01:01:41;17.73;;;15.10;;
7523;SDS011;3803;51.666;7.630;2023-06-10T01:02:03;20.23;;;14.63;;
7523;SDS011;3803;51.666;7.630;2023-06-10T01:02:24;20.35;;;14.27;;
7523;SDS011;3803;51.666;7.630;2023-06-10T01:02:46;20.38;;;14.68;;
7523;SDS011;3803;51.666;7.630;2023-06-10T01:03:08;17.90;;;14.40;;
7523;SDS011;3803;51.666;7.630;2023-06-10T01:03:29;18.38;;;14.80;;
7523;SDS011;3803;51.666;7.630;2023-06-10T01:03:51;18.75;;;14.80;;
7523;SDS011;3803;51.666;7.630;2023-06-10T01:04:11;18.17;;;15.40;;
7523;SDS011;3803;51.666;7.630;2023-06-10T01:04:32;16.92;;;14.48;;
7523;SDS011;3803;51.666;7.630;2023-06-10T01:04:53;16.08;;;14.25;;
7523;SDS011;3803;51.666;7.630;2023-06-10T01:05:14;15.73;;;13.90;;
7523;SDS011;3803;51.666;7.630;2023-06-10T01:05:35;16.23;;;14.15;;
7523;SDS011;3803;51.666;7.630;2023-06-10T01:05:59;16.42;;;14.50;;
7523;SDS011;3803;51.666;7.630;2023-06-10T01:08:39;17.77;;;14.10;;
7523;SDS011;3803;51.666;7.630;2023-06-10T01:09:12;17.08;;;14.60;;
7523;SDS011;3803;51.666;7.630;2023-06-10T01:09:49;17.75;;;14.73;;
7523;SDS011;3803;51.666;7.630;2023-06-10T01:10:24;19.17;;;14.45;;
7523;SDS011;3803;51.666;7.630;2023-06-10T01:11:11;16.98;;;14.48;;
7523;SDS011;3803;51.666;7.630;2023-06-10T01:11:41;16.20;;;14.13;;
7523;SDS011;3803;51.666;7.630;2023-06-10T01:12:10;17.33;;;14.40;;
7523;SDS011;3803;51.666;7.630;2023-06-10T01:13:14;15.68;;;13.98;;
7523;SDS011;3803;51.666;7.630;2023-06-10T01:13:36;15.52;;;13.90;;
7523;SDS011;3803;51.666;7.630;2023-06-10T01:14:01;16.17;;;13.52;;
7523;SDS011;3803;51.666;7.630;2023-06-10T01:14:24;17.00;;;13.45;;
7523;SDS011;3803;51.666;7.630;2023-06-10T01:14:46;17.48;;;13.60;;
7523;SDS011;3803;51.666;7.630;2023-06-10T01:15:09;15.27;;;13.23;;
7523;SDS011;3803;51.666;7.630;2023-06-10T01:15:30;16.15;;;13.25;;
7523;SDS011;3803;51.666;7.630;2023-06-10T01:15:51;15.98;;;13.50;;
7523;SDS011;3803;51.666;7.630;2023-06-10T01:16:12;15.98;;;13.40;;
7523;SDS011;3803;51.666;7.630;2023-06-10T01:16:33;15.45;;;13.10;;
7523;SDS011;3803;51.666;7.630;2023-06-10T01:16:57;15.85;;;13.38;;
7523;SDS011;3803;51.666;7.630;2023-06-10T01:17:18;15.20;;;13.50;;
7523;SDS011;3803;51.666;7.630;2023-06-10T01:17:54;15.10;;;13.43;;
7523;SDS011;3803;51.666;7.630;2023-06-10T01:18:16;14.55;;;12.73;;
7523;SDS011;3803;51.666;7.630;2023-06-10T01:18:37;14.60;;;12.53;;
7523;SDS011;3803;51.666;7.630;2023-06-10T01:18:58;15.05;;;13.02;;
7523;SDS011;3803;51.666;7.630;2023-06-10T01:19:20;16.88;;;13.40;;
7523;SDS011;3803;51.666;7.630;2023-06-10T01:19:44;16.35;;;13.40;;
7523;SDS011;3803;51.666;7.630;2023-06-10T01:20:13;16.42;;;13.63;;
7523;SDS011;3803;51.666;7.630;2023-06-10T01:20:34;15.30;;;13.70;;
7523;SDS011;3803;51.666;7.630;2023-06-10T01:20:57;15.95;;;14.05;;
7523;SDS011;3803;51.666;7.630;2023-06-10T01:21:19;15.95;;;14.13;;
7523;SDS011;3803;51.666;7.630;2023-06-10T01:21:41;16.60;;;14.80;;
7523;SDS011;3803;51.666;7.630;2023-06-10T01:22:02;16.80;;;15.00;;
7523;SDS011;3803;51.666;7.630;2023-06-10T01:22:24;18.92;;;14.77;;
7523;SDS011;3803;51.666;7.630;2023-06-10T01:22:57;20.58;;;14.32;;
7523;SDS011;3803;51.666;7.630;2023-06-10T01:23:18;20.70;;;14.55;;
7523;SDS011;3803;51.666;7.630;2023-06-10T01:23:40;16.60;;;14.13;;
7523;SDS011;3803;51.666;7.630;2023-06-10T01:24:01;16.98;;;14.00;;
7523;SDS011;3803;51.666;7.630;2023-06-10T01:24:22;16.98;;;13.55;;
7523;SDS011;3803;51.666;7.630;2023-06-10T01:24:43;16.60;;;12.93;;
7523;SDS011;3803;51.666;7.630;2023-06-10T01:25:04;18.55;;;13.15;;
7523;SDS011;3803;51.666;7.630;2023-06-10T01:25:26;19.20;;;13.60;;
7523;SDS011;3803;51.666;7.630;2023-06-10T01:26:02;18.20;;;14.35;;
7523;SDS011;3803;51.666;7.630;2023-06-10T01:26:28;19.80;;;14.85;;
7523;SDS011;3803;51.666;7.630;2023-06-10T01:26:52;19.42;;;14.50;;
7523;SDS011;3803;51.666;7.630;2023-06-10T01:27:14;16.33;;;14.07;;
7523;SDS011;3803;51.666;7.630;2023-06-10T01:27:40;16.05;;;14.15;;
7523;SDS011;3803;51.666;7.630;2023-06-10T01:28:12;17.20;;;14.70;;
7523;SDS011;3803;51.666;7.630;2023-06-10T01:28:44;18.20;;;15.20;;
7523;SDS011;3803;51.666;7.630;2023-06-10T01:29:36;17.95;;;14.38;;
7523;SDS011;3803;51.666;7.630;2023-06-10T01:30:04;16.50;;;14.02;;
7523;SDS011;3803;51.666;7.630;2023-06-10T01:31:28;16.90;;;14.43;;
7523;SDS011;3803;51.666;7.630;2023-06-10T01:32:53;16.85;;;14.05;;
7523;SDS011;3803;51.666;7.630;2023-06-10T01:33:15;17.38;;;14.45;;
7523;SDS011;3803;51.666;7.630;2023-06-10T01:33:41;17.30;;;14.20;;
7523;SDS011;3803;51.666;7.630;2023-06-10T01:34:10;16.45;;;14.02;;
7523;SDS011;3803;51.666;7.630;2023-06-10T01:34:34;15.82;;;14.13;;
7523;SDS011;3803;51.666;7.630;2023-06-10T01:34:57;15.55;;;13.85;;
7523;SDS011;3803;51.666;7.630;2023-06-10T01:35:21;15.68;;;13.20;;
7523;SDS011;3803;51.666;7.630;2023-06-10T01:35:46;15.75;;;13.45;;
7523;SDS011;3803;51.666;7.630;2023-06-10T01:36:08;15.65;;;13.57;;
7523;SDS011;3803;51.666;7.630;2023-06-10T01:36:29;16.65;;;14.25;;
7523;SDS011;3803;51.666;7.630;2023-06-10T01:36:52;17.48;;;14.45;;
7523;SDS011;3803;51.666;7.630;2023-06-10T01:37:18;16.83;;;14.20;;
7523;SDS011;3803;51.666;7.630;2023-06-10T01:37:41;18.58;;;14.75;;
7523;SDS011;3803;51.666;7.630;2023-06-10T01:38:06;19.00;;;14.50;;
7523;SDS011;3803;51.666;7.630;2023-06-10T01:38:28;18.75;;;14.45;;
7523;SDS011;3803;51.666;7.630;2023-06-10T01:38:57;16.88;;;14.35;;
7523;SDS011;3803;51.666;7.630;2023-06-10T01:39:20;15.75;;;13.93;;
7523;SDS011;3803;51.666;7.630;2023-06-10T01:39:44;16.10;;;14.40;;
7523;SDS011;3803;51.666;7.630;2023-06-10T01:40:06;16.48;;;14.32;;
7523;SDS011;3803;51.666;7.630;2023-06-10T01:40:29;17.00;;;14.10;;
7523;SDS011;3803;51.666;7.630;2023-06-10T01:40:51;17.73;;;13.63;;
7523;SDS011;3803;51.666;7.630;2023-06-10T01:41:15;16.48;;;13.50;;
7523;SDS011;3803;51.666;7.630;2023-06-10T01:41:38;16.55;;;14.10;;
7523;SDS011;3803;51.666;7.630;2023-06-10T01:42:00;17.35;;;14.27;;
7523;SDS011;3803;51.666;7.630;2023-06-10T01:42:24;19.92;;;14.15;;
7523;SDS011;3803;51.666;7.630;2023-06-10T01:42:45;18.02;;;13.63;;
7523;SDS011;3803;51.666;7.630;2023-06-10T01:43:07;17.23;;;13.45;;
7523;SDS011;3803;51.666;7.630;2023-06-10T01:43:28;14.95;;;13.30;;
7523;SDS011;3803;51.666;7.630;2023-06-10T01:43:48;16.70;;;13.68;;
7523;SDS011;3803;51.666;7.630;2023-06-10T01:44:09;16.58;;;13.68;;
7523;SDS011;3803;51.666;7.630;2023-06-10T01:44:31;17.48;;;14.15;;
7523;SDS011;3803;51.666;7.630;2023-06-10T01:44:53;17.42;;;14.00;;
7523;SDS011;3803;51.666;7.630;2023-06-10T01:45:13;17.30;;;13.98;;
7523;SDS011;3803;51.666;7.630;2023-06-10T01:45:34;17.67;;;14.00;;
7523;SDS011;3803;51.666;7.630;2023-06-10T01:45:55;15.98;;;13.90;;
7523;SDS011;3803;51.666;7.630;2023-06-10T01:46:16;15.43;;;13.77;;
7523;SDS011;3803;51.666;7.630;2023-06-10T01:46:40;16.58;;;13.80;;
7523;SDS011;3803;51.666;7.630;2023-06-10T01:47:01;17.40;;;14.03;;
7523;SDS011;3803;51.666;7.630;2023-06-10T01:47:21;17.95;;;14.95;;
7523;SDS011;3803;51.666;7.630;2023-06-10T01:47:42;16.98;;;15.18;;
7523;SDS011;3803;51.666;7.630;2023-06-10T01:48:03;16.90;;;15.07;;
7523;SDS011;3803;51.666;7.630;2023-06-10T01:48:23;17.47;;;14.73;;
7523;SDS011;3803;51.666;7.630;2023-06-10T01:48:44;17.63;;;14.05;;
7523;SDS011;3803;51.666;7.630;2023-06-10T01:49:05;18.00;;;14.13;;
7523;SDS011;3803;51.666;7.630;2023-06-10T01:49:26;18.23;;;13.80;;
7523;SDS011;3803;51.666;7.630;2023-06-10T01:49:47;17.30;;;13.45;;
7523;SDS011;3803;51.666;7.630;2023-06-10T01:50:08;16.93;;;13.53;;
7523;SDS011;3803;51.666;7.630;2023-06-10T01:50:29;16.98;;;14.07;;
7523;SDS011;3803;51.666;7.630;2023-06-10T01:50:50;19.08;;;14.98;;
7523;SDS011;3803;51.666;7.630;2023-06-10T01:51:11;19.30;;;14.95;;
7523;SDS011;3803;51.666;7.630;2023-06-10T01:51:31;18.00;;;14.63;;
7523;SDS011;3803;51.666;7.630;2023-06-10T01:51:52;16.83;;;14.25;;
7523;SDS011;3803;51.666;7.630;2023-06-10T01:52:13;15.90;;;14.20;;
7523;SDS011;3803;51.666;7.630;2023-06-10T01:52:33;16.30;;;14.50;;
7523;SDS011;3803;51.666;7.630;2023-06-10T01:52:56;18.00;;;15.27;;
7523;SDS011;3803;51.666;7.630;2023-06-10T01:53:17;18.88;;;15.15;;
7523;SDS011;3803;51.666;7.630;2023-06-10T01:53:38;18.40;;;14.90;;
7523;SDS011;3803;51.666;7.630;2023-06-10T01:54:01;16.92;;;14.10;;
7523;SDS011;3803;51.666;7.630;2023-06-10T01:54:21;19.50;;;14.05;;
7523;SDS011;3803;51.666;7.630;2023-06-10T01:54:42;19.33;;;14.50;;
7523;SDS011;3803;51.666;7.630;2023-06-10T01:55:03;19.97;;;14.87;;
7523;SDS011;3803;51.666;7.630;2023-06-10T01:55:25;18.52;;;15.43;;
7523;SDS011;3803;51.666;7.630;2023-06-10T01:55:45;19.43;;;15.50;;
7523;SDS011;3803;51.666;7.630;2023-06-10T01:56:06;19.73;;;15.88;;
7523;SDS011;3803;51.666;7.630;2023-06-10T01:56:27;18.45;;;15.52;;
7523;SDS011;3803;51.666;7.630;2023-06-10T01:56:47;17.77;;;15.30;;
7523;SDS011;3803;51.666;7.630;2023-06-10T01:57:08;16.53;;;14.40;;
7523;SDS011;3803;51.666;7.630;2023-06-10T01:57:29;18.15;;;14.45;;
7523;SDS011;3803;51.666;7.630;2023-06-10T01:57:50;18.27;;;14.30;;
7523;SDS011;3803;51.666;7.630;2023-06-10T01:58:12;19.15;;;14.77;;
7523;SDS011;3803;51.666;7.630;2023-06-10T01:58:33;18.55;;;14.60;;
7523;SDS011;3803;51.666;7.630;2023-06-10T01:58:54;19.05;;;14.45;;
7523;SDS011;3803;51.666;7.630;2023-06-10T01:59:19;20.13;;;14.60;;
7523;SDS011;3803;51.666;7.630;2023-06-10T01:59:40;22.58;;;14.50;;
7523;SDS011;3803;51.666;7.630;2023-06-10T02:00:02;20.77;;;14.95;;
7523;SDS011;3803;51.666;7.630;2023-06-10T02:00:23;19.30;;;14.93;;
7523;SDS011;3803;51.666;7.630;2023-06-10T02:00:44;17.43;;;15.33;;
7523;SDS011;3803;51.666;7.630;2023-06-10T02:01:04;17.52;;;15.23;;
7523;SDS011;3803;51.666;7.630;2023-06-10T02:01:25;18.15;;;15.25;;
7523;SDS011;3803;51.666;7.630;2023-06-10T02:01:46;17.40;;;14.73;;
7523;SDS011;3803;51.666;7.630;2023-06-10T02:02:07;16.90;;;14.77;;
7523;SDS011;3803;51.666;7.630;2023-06-10T02:02:28;15.90;;;14.20;;
7523;SDS011;3803;51.666;7.630;2023-06-10T02:02:48;16.58;;;14.68;;
7523;SDS011;3803;51.666;7.630;2023-06-10T02:03:09;16.88;;;14.40;;
7523;SDS011;3803;51.666;7.630;2023-06-10T02:03:30;17.20;;;14.90;;
7523;SDS011;3803;51.666;7.630;2023-06-10T02:03:50;16.63;;;14.83;;
7523;SDS011;3803;51.666;7.630;2023-06-10T02:04:15;18.42;;;15.13;;
7523;SDS011;3803;51.666;7.630;2023-06-10T02:04:36;18.75;;;15.13;;
7523;SDS011;3803;51.666;7.630;2023-06-10T02:04:57;18.23;;;15.25;;
7523;SDS011;3803;51.666;7.630;2023-06-10T02:05:18;18.70;;;15.63;;
7523;SDS011;3803;51.666;7.630;2023-06-10T02:05:39;17.60;;;15.63;;
7523;SDS011;3803;51.666;7.630;2023-06-10T02:06:00;17.98;;;15.35;;
7523;SDS011;3803;51.666;7.630;2023-06-10T02:06:20;17.17;;;15.20;;
7523;SDS011;3803;51.666;7.630;2023-06-10T02:06:41;18.33;;;15.40;;
7523;SDS011;3803;51.666;7.630;2023-06-10T02:07:02;17.42;;;15.38;;
7523;SDS011;3803;51.666;7.630;2023-06-10T02:07:24;18.27;;;15.50;;
7523;SDS011;3803;51.666;7.630;2023-06-10T02:07:45;18.90;;;15.65;;
7523;SDS011;3803;51.666;7.630;2023-06-10T02:08:08;20.23;;;15.98;;
7523;SDS011;3803;51.666;7.630;2023-06-10T02:08:29;20.95;;;15.98;;
7523;SDS011;3803;51.666;7.630;2023-06-10T02:08:49;25.00;;;16.00;;
7523;SDS011;3803;51.666;7.630;2023-06-10T02:09:10;22.87;;;15.70;;
7523;SDS011;3803;51.666;7.630;2023-06-10T02:09:31;20.58;;;15.48;;
7523;SDS011;3803;51.666;7.630;2023-06-10T02:09:55;18.73;;;15.57;;
7523;SDS011;3803;51.666;7.630;2023-06-10T02:10:15;18.60;;;15.30;;
7523;SDS011;3803;51.666;7.630;2023-06-10T02:10:36;16.73;;;14.80;;
7523;SDS011;3803;51.666;7.630;2023-06-10T02:10:57;16.65;;;14.85;;
7523;SDS011;3803;51.666;7.630;2023-06-10T02:11:18;18.02;;;15.10;;
7523;SDS011;3803;51.666;7.630;2023-06-10T02:11:39;19.58;;;15.48;;
7523;SDS011;3803;51.666;7.630;2023-06-10T02:12:03;19.08;;;15.18;;
7523;SDS011;3803;51.666;7.630;2023-06-10T02:12:25;18.02;;;15.15;;
7523;SDS011;3803;51.666;7.630;2023-06-10T02:12:45;17.77;;;15.70;;
7523;SDS011;3803;51.666;7.630;2023-06-10T02:13:06;17.90;;;15.37;;
7523;SDS011;3803;51.666;7.630;2023-06-10T02:13:28;17.70;;;15.27;;
7523;SDS011;3803;51.666;7.630;2023-06-10T02:13:48;17.10;;;14.80;;
7523;SDS011;3803;51.666;7.630;2023-06-10T02:14:10;17.30;;;15.25;;
7523;SDS011;3803;51.666;7.630;2023-06-10T02:14:32;17.67;;;14.90;;
7523;SDS011;3803;51.666;7.630;2023-06-10T02:14:53;17.90;;;15.13;;
7523;SDS011;3803;51.666;7.630;2023-06-10T02:15:14;18.77;;;15.45;;
7523;SDS011;3803;51.666;7.630;2023-06-10T02:15:34;18.38;;;15.60;;
7523;SDS011;3803;51.666;7.630;2023-06-10T02:15:55;18.80;;;15.32;;
7523;SDS011;3803;51.666;7.630;2023-06-10T02:16:16;19.23;;;15.50;;
7523;SDS011;3803;51.666;7.630;2023-06-10T02:16:37;18.92;;;15.20;;
7523;SDS011;3803;51.666;7.630;2023-06-10T02:16:59;17.55;;;14.77;;
7523;SDS011;3803;51.666;7.630;2023-06-10T02:17:20;16.45;;;14.55;;
7523;SDS011;3803;51.666;7.630;2023-06-10T02:17:43;17.20;;;14.63;;
7523;SDS011;3803;51.666;7.630;2023-06-10T02:18:06;18.10;;;14.48;;
7523;SDS011;3803;51.666;7.630;2023-06-10T02:18:27;18.25;;;14.20;;
7523;SDS011;3803;51.666;7.630;2023-06-10T02:18:48;18.98;;;14.75;;
7523;SDS011;3803;51.666;7.630;2023-06-10T02:19:09;18.33;;;14.43;;